Terminal Aerodrome Forecast
Issued by NWS Wilmington, OH

Current Version | Previous Version | Text Only | Print | Product List | Glossary On
Versions: 1 2 3 4 5 6 7 8 9 10 11 12 13 14 15 16 17 18 19 20 21 22 23 24 25
000 FTUS41 KILN 280254 AAB TAFCMH TAF AMD KCMH 280254Z 2803/2824 03005KT P6SM VCSH FEW008 OVC022 FM280900 28004KT 4SM BR OVC008 FM281400 34009KT P6SM VCSH SCT015 OVC040 FM282000 01012G20KT P6SM BKN040=

USA.gov is the U.S. government's official web portal to all federal, state and local government web resources and services.